PWSweather.com
Personal Weather Stations
Station Observations
DEEPSOUTH
Waverley, InvercargillNZ 9810

WaverleyInvercargillNZ 9810

Lat: -46.3926834, Lon: 168.381112

Elevation: 72

Station Type: Davis VP2

http://www.deepsouthweather.co.nz/

Latest ConditionsUpdated 12:20:02 PM GMT+11:11 Thursday, Nov 27, 2014
Currently Today's Max Today's Min Today's Average
Temperature 55.8°F13.2°C 56.5°F13.6°C 47.5°F8.6°C 51.1°F10.6°C
Dew Point 46.9°F8.3°C 47.2°F8.4°C 43.1°F6.2°C 44.9°F7.2°C
Winds 17.0 mph SW27.4 kmh SW 18.0 mph SW29.0 kmh SW - 10.1 mph 16.3 kmh
Wind Gusts 30.0 mph48.3 kmh 37.0 mph59.5 kmh - -
Humidity 72% 95% 66% 80%
Pressure 29.51 in999.3 mb 29.52 in999.7 mb 29.44 in997.0 mb -
Precipitation - 0.04 in1.0 mm - -
Hour Temp Dew Point Humidity Winds Wind Gusts Pressure Precip Precip Rate Daily Precip Total
12:20 PM 55.8°F13.2°C 46.9°F8.3°C 72% 17.0 mph SW27.4 kmh SW 30.0 mph48.3 kmh 29.51 in999.3 mb 0.00 in0.0 mm 0.00 in/hr0.0 mm/hr 0.04 in1.0 mm
12:10 PM 56.5°F13.6°C 46.0°F7.8°C 68% 18.0 mph SW29.0 kmh SW 30.0 mph48.3 kmh 29.50 in999.0 mb 0.00 in0.0 mm 0.00 in/hr0.0 mm/hr 0.04 in1.0 mm
12:00 PM 56.5°F13.6°C 46.4°F8.0°C 69% 16.0 mph SW25.7 kmh SW 32.0 mph51.5 kmh 29.50 in999.0 mb 0.00 in0.0 mm 0.00 in/hr0.0 mm/hr 0.04 in1.0 mm
11:50 AM 55.9°F13.3°C 46.3°F7.9°C 70% 16.0 mph WSW25.7 kmh WSW 36.0 mph57.9 kmh 29.50 in999.0 mb 0.00 in0.0 mm 0.00 in/hr0.0 mm/hr 0.04 in1.0 mm
11:40 AM 55.8°F13.2°C 46.5°F8.1°C 71% 17.0 mph SW27.4 kmh SW 30.0 mph48.3 kmh 29.50 in999.0 mb 0.00 in0.0 mm 0.00 in/hr0.0 mm/hr 0.04 in1.0 mm
11:30 AM 55.8°F13.2°C 44.6°F7.0°C 66% 16.0 mph WSW25.7 kmh WSW 31.0 mph49.9 kmh 29.50 in999.0 mb 0.00 in0.0 mm 0.00 in/hr0.0 mm/hr 0.04 in1.0 mm
11:20 AM 55.0°F12.8°C 45.4°F7.4°C 70% 17.0 mph SW27.4 kmh SW 31.0 mph49.9 kmh 29.51 in999.3 mb 0.00 in0.0 mm 0.00 in/hr0.0 mm/hr 0.04 in1.0 mm
11:10 AM 54.9°F12.7°C 45.6°F7.6°C 71% 16.0 mph SW25.7 kmh SW 34.0 mph54.7 kmh 29.52 in999.7 mb 0.00 in0.0 mm 0.00 in/hr0.0 mm/hr 0.04 in1.0 mm
11:00 AM 55.6°F13.1°C 46.3°F7.9°C 71% 14.0 mph WSW22.5 kmh WSW 31.0 mph49.9 kmh 29.51 in999.3 mb 0.00 in0.0 mm 0.00 in/hr0.0 mm/hr 0.04 in1.0 mm
10:50 AM 54.9°F12.7°C 46.7°F8.2°C 74% 15.0 mph SW24.1 kmh SW 29.0 mph46.7 kmh 29.51 in999.3 mb 0.00 in0.0 mm 0.00 in/hr0.0 mm/hr 0.04 in1.0 mm
10:40 AM 54.5°F12.5°C 44.5°F6.9°C 69% 17.0 mph WSW27.4 kmh WSW 29.0 mph46.7 kmh 29.51 in999.3 mb 0.00 in0.0 mm 0.00 in/hr0.0 mm/hr 0.04 in1.0 mm
10:30 AM 54.1°F12.3°C 44.6°F7.0°C 70% 15.0 mph SW24.1 kmh SW 33.0 mph53.1 kmh 29.51 in999.3 mb 0.00 in0.0 mm 0.00 in/hr0.0 mm/hr 0.04 in1.0 mm
10:20 AM 54.9°F12.7°C 45.6°F7.6°C 71% 16.0 mph WSW25.7 kmh WSW 37.0 mph59.5 kmh 29.52 in999.7 mb 0.00 in0.0 mm 0.00 in/hr0.0 mm/hr 0.04 in1.0 mm
10:10 AM 54.9°F12.7°C 44.9°F7.2°C 69% 15.0 mph WSW24.1 kmh WSW 32.0 mph51.5 kmh 29.51 in999.3 mb 0.00 in0.0 mm 0.00 in/hr0.0 mm/hr 0.04 in1.0 mm
10:00 AM 54.1°F12.3°C 44.2°F6.8°C 69% 16.0 mph WSW25.7 kmh WSW 35.0 mph56.3 kmh 29.51 in999.3 mb 0.00 in0.0 mm 0.00 in/hr0.0 mm/hr 0.04 in1.0 mm
09:50 AM 55.4°F13.0°C 46.9°F8.3°C 73% 14.0 mph WSW22.5 kmh WSW 31.0 mph49.9 kmh 29.51 in999.3 mb 0.00 in0.0 mm 0.00 in/hr0.0 mm/hr 0.04 in1.0 mm
09:40 AM 55.0°F12.8°C 44.7°F7.1°C 68% 13.0 mph WSW20.9 kmh WSW 34.0 mph54.7 kmh 29.51 in999.3 mb 0.00 in0.0 mm 0.00 in/hr0.0 mm/hr 0.04 in1.0 mm
09:30 AM 55.8°F13.2°C 45.0°F7.2°C 67% 12.0 mph WSW19.3 kmh WSW 26.0 mph41.8 kmh 29.50 in999.0 mb 0.00 in0.0 mm 0.00 in/hr0.0 mm/hr 0.04 in1.0 mm
09:20 AM 54.9°F12.7°C 44.9°F7.2°C 69% 16.0 mph WSW25.7 kmh WSW 31.0 mph49.9 kmh 29.51 in999.3 mb 0.00 in0.0 mm 0.00 in/hr0.0 mm/hr 0.04 in1.0 mm
09:10 AM 54.9°F12.7°C 45.3°F7.4°C 70% 14.0 mph WSW22.5 kmh WSW 29.0 mph46.7 kmh 29.50 in999.0 mb 0.00 in0.0 mm 0.00 in/hr0.0 mm/hr 0.04 in1.0 mm
09:00 AM 54.1°F12.3°C 44.9°F7.2°C 71% 14.0 mph WSW22.5 kmh WSW 32.0 mph51.5 kmh 29.50 in999.0 mb 0.01 in0.3 mm 0.00 in/hr0.0 mm/hr 0.04 in1.0 mm
08:50 AM 54.1°F12.3°C 46.4°F8.0°C 75% 14.0 mph WSW22.5 kmh WSW 28.0 mph45.1 kmh 29.50 in999.0 mb 0.01 in0.3 mm 0.00 in/hr0.0 mm/hr 0.04 in1.0 mm
08:40 AM 53.1°F11.7°C 46.4°F8.0°C 78% 12.0 mph WSW19.3 kmh WSW 25.0 mph40.2 kmh 29.50 in999.0 mb 0.01 in0.3 mm 0.00 in/hr0.0 mm/hr 0.04 in1.0 mm
08:30 AM 51.6°F10.9°C 46.3°F7.9°C 82% 9.0 mph WSW14.5 kmh WSW 19.0 mph30.6 kmh 29.50 in999.0 mb 0.01 in0.3 mm 0.00 in/hr0.0 mm/hr 0.04 in1.0 mm
08:20 AM 50.7°F10.4°C 46.1°F7.8°C 84% 12.0 mph WSW19.3 kmh WSW 33.0 mph53.1 kmh 29.50 in999.0 mb 0.01 in0.3 mm 0.00 in/hr0.0 mm/hr 0.04 in1.0 mm
08:10 AM 52.3°F11.3°C 45.3°F7.4°C 77% 11.0 mph WSW17.7 kmh WSW 33.0 mph53.1 kmh 29.51 in999.3 mb 0.01 in0.3 mm 0.06 in/hr1.5 mm/hr 0.04 in1.0 mm
08:00 AM 53.8°F12.1°C 44.6°F7.0°C 71% 9.0 mph WSW14.5 kmh WSW 19.0 mph30.6 kmh 29.49 in998.6 mb 0.00 in0.0 mm 0.00 in/hr0.0 mm/hr 0.03 in0.8 mm
07:50 AM 54.0°F12.2°C 45.5°F7.5°C 73% 8.0 mph W12.9 kmh W 19.0 mph30.6 kmh 29.49 in998.6 mb 0.00 in0.0 mm 0.00 in/hr0.0 mm/hr 0.03 in0.8 mm
07:40 AM 52.9°F11.6°C 44.5°F6.9°C 73% 8.0 mph W12.9 kmh W 20.0 mph32.2 kmh 29.49 in998.6 mb 0.00 in0.0 mm 0.00 in/hr0.0 mm/hr 0.03 in0.8 mm
07:30 AM 52.5°F11.4°C 44.1°F6.7°C 73% 9.0 mph W14.5 kmh W 21.0 mph33.8 kmh 29.49 in998.6 mb 0.00 in0.0 mm 0.00 in/hr0.0 mm/hr 0.03 in0.8 mm
07:20 AM 52.3°F11.3°C 44.6°F7.0°C 75% 9.0 mph W14.5 kmh W 18.0 mph29.0 kmh 29.48 in998.3 mb 0.00 in0.0 mm 0.00 in/hr0.0 mm/hr 0.03 in0.8 mm
07:10 AM 51.4°F10.8°C 43.8°F6.6°C 75% 9.0 mph W14.5 kmh W 21.0 mph33.8 kmh 29.48 in998.3 mb 0.00 in0.0 mm 0.00 in/hr0.0 mm/hr 0.03 in0.8 mm
07:00 AM 51.1°F10.6°C 43.8°F6.6°C 76% 11.0 mph W17.7 kmh W 23.0 mph37.0 kmh 29.48 in998.3 mb 0.00 in0.0 mm 0.00 in/hr0.0 mm/hr 0.03 in0.8 mm
06:50 AM 50.7°F10.4°C 43.8°F6.6°C 77% 11.0 mph W17.7 kmh W 23.0 mph37.0 kmh 29.48 in998.3 mb 0.00 in0.0 mm 0.00 in/hr0.0 mm/hr 0.03 in0.8 mm
06:40 AM 50.5°F10.3°C 44.3°F6.8°C 79% 10.0 mph WSW16.1 kmh WSW 23.0 mph37.0 kmh 29.48 in998.3 mb 0.00 in0.0 mm 0.00 in/hr0.0 mm/hr 0.03 in0.8 mm
06:30 AM 50.4°F10.2°C 44.1°F6.7°C 79% 10.0 mph WSW16.1 kmh WSW 25.0 mph40.2 kmh 29.48 in998.3 mb 0.00 in0.0 mm 0.00 in/hr0.0 mm/hr 0.03 in0.8 mm
06:20 AM 50.4°F10.2°C 44.1°F6.7°C 79% 10.0 mph W16.1 kmh W 23.0 mph37.0 kmh 29.47 in998.0 mb 0.00 in0.0 mm 0.00 in/hr0.0 mm/hr 0.03 in0.8 mm
06:10 AM 50.2°F10.1°C 43.6°F6.4°C 78% 10.0 mph W16.1 kmh W 20.0 mph32.2 kmh 29.47 in998.0 mb 0.00 in0.0 mm 0.00 in/hr0.0 mm/hr 0.03 in0.8 mm
06:00 AM 50.0°F10.0°C 43.7°F6.5°C 79% 8.0 mph W12.9 kmh W 23.0 mph37.0 kmh 29.47 in998.0 mb 0.00 in0.0 mm 0.00 in/hr0.0 mm/hr 0.03 in0.8 mm
05:50 AM 49.8°F9.9°C 43.9°F6.6°C 80% 9.0 mph W14.5 kmh W 20.0 mph32.2 kmh 29.46 in997.6 mb 0.00 in0.0 mm 0.00 in/hr0.0 mm/hr 0.03 in0.8 mm
05:40 AM 49.6°F9.8°C 44.0°F6.7°C 81% 10.0 mph W16.1 kmh W 22.0 mph35.4 kmh 29.46 in997.6 mb 0.00 in0.0 mm 0.00 in/hr0.0 mm/hr 0.03 in0.8 mm
05:30 AM 49.6°F9.8°C 44.7°F7.1°C 83% 9.0 mph W14.5 kmh W 20.0 mph32.2 kmh 29.46 in997.6 mb 0.00 in0.0 mm 0.00 in/hr0.0 mm/hr 0.03 in0.8 mm
05:20 AM 49.3°F9.6°C 44.3°F6.8°C 83% 9.0 mph W14.5 kmh W 24.0 mph38.6 kmh 29.46 in997.6 mb 0.00 in0.0 mm 0.00 in/hr0.0 mm/hr 0.03 in0.8 mm
05:10 AM 48.9°F9.4°C 44.0°F6.7°C 83% 8.0 mph W12.9 kmh W 18.0 mph29.0 kmh 29.46 in997.6 mb 0.00 in0.0 mm 0.00 in/hr0.0 mm/hr 0.03 in0.8 mm
05:00 AM 48.9°F9.4°C 44.0°F6.7°C 83% 7.0 mph W11.3 kmh W 18.0 mph29.0 kmh 29.45 in997.3 mb 0.00 in0.0 mm 0.00 in/hr0.0 mm/hr 0.03 in0.8 mm
04:50 AM 48.7°F9.3°C 43.8°F6.6°C 83% 8.0 mph W12.9 kmh W 20.0 mph32.2 kmh 29.45 in997.3 mb 0.00 in0.0 mm 0.00 in/hr0.0 mm/hr 0.03 in0.8 mm
04:40 AM 48.4°F9.1°C 43.8°F6.6°C 84% 7.0 mph W11.3 kmh W 17.0 mph27.4 kmh 29.45 in997.3 mb 0.00 in0.0 mm 0.00 in/hr0.0 mm/hr 0.03 in0.8 mm
04:30 AM 48.0°F8.9°C 43.7°F6.5°C 85% 7.0 mph W11.3 kmh W 19.0 mph30.6 kmh 29.45 in997.3 mb 0.00 in0.0 mm 0.00 in/hr0.0 mm/hr 0.03 in0.8 mm
04:20 AM 47.7°F8.7°C 43.4°F6.3°C 85% 7.0 mph W11.3 kmh W 19.0 mph30.6 kmh 29.45 in997.3 mb 0.00 in0.0 mm 0.00 in/hr0.0 mm/hr 0.03 in0.8 mm
04:10 AM 47.7°F8.7°C 43.4°F6.3°C 85% 6.0 mph W9.7 kmh W 13.0 mph20.9 kmh 29.45 in997.3 mb 0.00 in0.0 mm 0.00 in/hr0.0 mm/hr 0.03 in0.8 mm
04:00 AM 47.7°F8.7°C 43.4°F6.3°C 85% 7.0 mph W11.3 kmh W 16.0 mph25.7 kmh 29.44 in997.0 mb 0.00 in0.0 mm 0.00 in/hr0.0 mm/hr 0.03 in0.8 mm
03:50 AM 47.7°F8.7°C 43.1°F6.2°C 84% 8.0 mph W12.9 kmh W 19.0 mph30.6 kmh 29.44 in997.0 mb 0.00 in0.0 mm 0.00 in/hr0.0 mm/hr 0.03 in0.8 mm
03:40 AM 47.8°F8.8°C 43.5°F6.4°C 85% 8.0 mph W12.9 kmh W 20.0 mph32.2 kmh 29.44 in997.0 mb 0.00 in0.0 mm 0.00 in/hr0.0 mm/hr 0.03 in0.8 mm
03:30 AM 47.8°F8.8°C 43.9°F6.6°C 86% 8.0 mph W12.9 kmh W 24.0 mph38.6 kmh 29.44 in997.0 mb 0.00 in0.0 mm 0.00 in/hr0.0 mm/hr 0.03 in0.8 mm
03:20 AM 47.7°F8.7°C 44.0°F6.7°C 87% 7.0 mph W11.3 kmh W 19.0 mph30.6 kmh 29.44 in997.0 mb 0.00 in0.0 mm 0.00 in/hr0.0 mm/hr 0.03 in0.8 mm
03:10 AM 47.5°F8.6°C 43.8°F6.6°C 87% 6.0 mph W9.7 kmh W 14.0 mph22.5 kmh 29.44 in997.0 mb 0.00 in0.0 mm 0.00 in/hr0.0 mm/hr 0.03 in0.8 mm
03:00 AM 47.5°F8.6°C 43.8°F6.6°C 87% 6.0 mph W9.7 kmh W 14.0 mph22.5 kmh 29.45 in997.3 mb 0.00 in0.0 mm 0.00 in/hr0.0 mm/hr 0.03 in0.8 mm
02:50 AM 47.5°F8.6°C 44.1°F6.7°C 88% 5.0 mph W8.0 kmh W 12.0 mph19.3 kmh 29.45 in997.3 mb 0.00 in0.0 mm 0.00 in/hr0.0 mm/hr 0.03 in0.8 mm
02:40 AM 47.5°F8.6°C 44.1°F6.7°C 88% 5.0 mph W8.0 kmh W 12.0 mph19.3 kmh 29.45 in997.3 mb 0.00 in0.0 mm 0.00 in/hr0.0 mm/hr 0.03 in0.8 mm
02:30 AM 47.7°F8.7°C 44.3°F6.8°C 88% 5.0 mph WNW8.0 kmh WNW 12.0 mph19.3 kmh 29.45 in997.3 mb 0.00 in0.0 mm 0.00 in/hr0.0 mm/hr 0.03 in0.8 mm
02:20 AM 48.0°F8.9°C 44.6°F7.0°C 88% 9.0 mph W14.5 kmh W 21.0 mph33.8 kmh 29.44 in997.0 mb 0.00 in0.0 mm 0.00 in/hr0.0 mm/hr 0.03 in0.8 mm
02:10 AM 48.2°F9.0°C 44.5°F6.9°C 87% 8.0 mph W12.9 kmh W 18.0 mph29.0 kmh 29.44 in997.0 mb 0.00 in0.0 mm 0.00 in/hr0.0 mm/hr 0.03 in0.8 mm
02:00 AM 48.4°F9.1°C 44.7°F7.1°C 87% 10.0 mph W16.1 kmh W 22.0 mph35.4 kmh 29.45 in997.3 mb 0.00 in0.0 mm 0.00 in/hr0.0 mm/hr 0.03 in0.8 mm
01:50 AM 48.4°F9.1°C 45.0°F7.2°C 88% 8.0 mph W12.9 kmh W 20.0 mph32.2 kmh 29.45 in997.3 mb 0.00 in0.0 mm 0.00 in/hr0.0 mm/hr 0.03 in0.8 mm
01:40 AM 48.4°F9.1°C 45.0°F7.2°C 88% 8.0 mph W12.9 kmh W 19.0 mph30.6 kmh 29.45 in997.3 mb 0.00 in0.0 mm 0.00 in/hr0.0 mm/hr 0.03 in0.8 mm
01:30 AM 48.4°F9.1°C 45.0°F7.2°C 88% 9.0 mph W14.5 kmh W 22.0 mph35.4 kmh 29.45 in997.3 mb 0.00 in0.0 mm 0.00 in/hr0.0 mm/hr 0.03 in0.8 mm
01:20 AM 48.6°F9.2°C 45.5°F7.5°C 89% 9.0 mph W14.5 kmh W 22.0 mph35.4 kmh 29.45 in997.3 mb 0.00 in0.0 mm 0.00 in/hr0.0 mm/hr 0.03 in0.8 mm
01:10 AM 48.7°F9.3°C 45.9°F7.7°C 90% 8.0 mph W12.9 kmh W 18.0 mph29.0 kmh 29.45 in997.3 mb 0.00 in0.0 mm 0.00 in/hr0.0 mm/hr 0.03 in0.8 mm
01:00 AM 48.6°F9.2°C 46.1°F7.8°C 91% 10.0 mph W16.1 kmh W 20.0 mph32.2 kmh 29.45 in997.3 mb 0.00 in0.0 mm 0.00 in/hr0.0 mm/hr 0.03 in0.8 mm
12:50 AM 48.6°F9.2°C 46.3°F7.9°C 92% 9.0 mph WSW14.5 kmh WSW 23.0 mph37.0 kmh 29.46 in997.6 mb 0.00 in0.0 mm 0.00 in/hr0.0 mm/hr 0.03 in0.8 mm
12:40 AM 48.6°F9.2°C 46.9°F8.3°C 94% 4.0 mph W6.4 kmh W 14.0 mph22.5 kmh 29.45 in997.3 mb 0.00 in0.0 mm 0.00 in/hr0.0 mm/hr 0.03 in0.8 mm
12:30 AM 48.6°F9.2°C 46.9°F8.3°C 94% 3.0 mph W4.8 kmh W 8.0 mph12.9 kmh 29.45 in997.3 mb 0.00 in0.0 mm 0.00 in/hr0.0 mm/hr 0.03 in0.8 mm
12:20 AM 48.6°F9.2°C 47.2°F8.4°C 95% 3.0 mph W4.8 kmh W 7.0 mph11.3 kmh 29.45 in997.3 mb 0.00 in0.0 mm 0.00 in/hr0.0 mm/hr 0.03 in0.8 mm
12:10 AM 48.6°F9.2°C 47.2°F8.4°C 95% 4.0 mph WSW6.4 kmh WSW 11.0 mph17.7 kmh 29.45 in997.3 mb 0.00 in0.0 mm 0.00 in/hr0.0 mm/hr 0.03 in0.8 mm
12:00 AM 48.6°F9.2°C 47.2°F8.4°C 95% 3.0 mph WSW4.8 kmh WSW 6.0 mph9.7 kmh 29.45 in997.3 mb 0.00 in0.0 mm 0.00 in/hr0.0 mm/hr 0.03 in0.8 mm